createdAt,value
2019-05-02T00:01:03.786Z,24.67
2019-05-02T00:03:35.891Z,24.92
2019-05-02T00:06:07.529Z,24.52
2019-05-02T00:08:35.181Z,20.92
2019-05-02T00:11:05.334Z,21.55
2019-05-02T00:13:34.356Z,21.27
2019-05-02T00:16:03.408Z,21.02
2019-05-02T00:18:37.180Z,23.25
2019-05-02T00:21:03.282Z,23.52
2019-05-02T00:23:31.926Z,22.80
2019-05-02T00:26:00.507Z,22.52
2019-05-02T00:28:29.256Z,24.45
2019-05-02T00:30:57.927Z,22.32
2019-05-02T00:33:29.096Z,23.73
2019-05-02T00:35:56.671Z,24.27
2019-05-02T00:38:25.527Z,22.80
2019-05-02T00:40:57.369Z,22.00
2019-05-02T00:43:24.267Z,18.70
2019-05-02T00:45:54.997Z,21.87
2019-05-02T00:48:24.752Z,23.70
2019-05-02T00:50:54.125Z,19.05
2019-05-02T00:53:22.699Z,20.68
2019-05-02T00:55:51.175Z,19.10
2019-05-02T00:58:19.756Z,22.25
2019-05-02T01:01:06.217Z,18.27
2019-05-02T01:03:36.430Z,23.73
2019-05-02T01:06:05.041Z,20.80
2019-05-02T01:08:35.596Z,20.80
2019-05-02T01:11:03.820Z,23.73
2019-05-02T01:13:32.399Z,19.25
2019-05-02T01:16:01.015Z,19.95
2019-05-02T01:18:29.583Z,18.27
2019-05-02T01:21:02.419Z,16.85
2019-05-02T01:23:29.554Z,17.62
2019-05-02T01:25:58.217Z,17.80
2019-05-02T01:28:49.308Z,19.65
2019-05-02T01:31:18.451Z,20.72
2019-05-02T01:33:48.452Z,21.45
2019-05-02T01:36:18.693Z,19.25
2019-05-02T01:38:48.872Z,18.40
2019-05-02T01:41:17.438Z,19.00
2019-05-02T01:43:46.016Z,23.07
2019-05-02T01:46:17.103Z,20.75
2019-05-02T01:48:45.578Z,22.13
2019-05-02T01:51:14.664Z,21.60
2019-05-02T01:53:43.680Z,23.50
2019-05-02T01:56:12.527Z,21.73
2019-05-02T01:58:41.139Z,25.27
2019-05-02T02:01:09.679Z,21.70
2019-05-02T02:03:40.620Z,19.40
2019-05-02T02:06:10.070Z,18.42
2019-05-02T02:08:38.826Z,19.40
2019-05-02T02:11:07.397Z,21.33
2019-05-02T02:13:36.529Z,19.67
2019-05-02T02:16:06.526Z,23.30
2019-05-02T02:18:36.797Z,24.43
2019-05-02T02:21:25.651Z,20.65
2019-05-02T02:23:59.531Z,23.67
2019-05-02T02:26:28.101Z,23.50
2019-05-02T02:28:56.732Z,23.50
2019-05-02T02:31:25.251Z,23.25
2019-05-02T02:33:53.727Z,25.32
2019-05-02T02:36:31.675Z,25.62
2019-05-02T02:38:52.568Z,30.82
2019-05-02T02:41:21.097Z,25.68
2019-05-02T02:44:03.409Z,23.22
2019-05-02T02:46:38.099Z,21.87
2019-05-02T02:49:04.460Z,26.25
2019-05-02T02:51:33.487Z,22.45
2019-05-02T02:54:03.983Z,23.85
2019-05-02T02:56:34.518Z,22.25
2019-05-02T02:59:02.481Z,24.00
2019-05-02T03:01:31.313Z,24.00
2019-05-02T03:04:01.962Z,24.40
2019-05-02T03:06:30.202Z,24.40
2019-05-02T03:08:59.048Z,24.37
2019-05-02T03:11:29.439Z,28.52
2019-05-02T03:14:15.533Z,26.82
2019-05-02T03:16:46.933Z,35.10
2019-05-02T03:19:20.400Z,28.30
2019-05-02T03:21:54.611Z,25.17
2019-05-02T03:24:24.834Z,25.72
2019-05-02T03:26:56.109Z,27.42
2019-05-02T03:29:25.355Z,28.23
2019-05-02T03:32:11.798Z,24.72
2019-05-02T03:34:44.980Z,30.15
2019-05-02T03:37:03.140Z,29.30
2019-05-02T03:39:25.511Z,27.20
2019-05-02T03:41:55.458Z,27.60
2019-05-02T03:44:26.286Z,25.85
2019-05-02T03:47:02.369Z,29.18
2019-05-02T03:49:26.419Z,32.50
2019-05-02T03:51:55.781Z,28.80
2019-05-02T03:54:25.386Z,27.67
2019-05-02T03:56:54.509Z,29.37
2019-05-02T03:59:37.229Z,30.30
2019-05-02T04:01:54.806Z,38.33
2019-05-02T04:04:23.356Z,33.95
2019-05-02T04:06:54.878Z,29.87
2019-05-02T04:09:32.094Z,28.27
2019-05-02T04:11:59.346Z,29.72
2019-05-02T04:14:37.354Z,29.65
2019-05-02T04:16:59.595Z,34.40
2019-05-02T04:19:34.659Z,30.57
2019-05-02T04:22:01.476Z,35.52
2019-05-02T04:24:30.738Z,34.33
2019-05-02T04:27:00.353Z,32.45
2019-05-02T04:29:31.284Z,37.28
2019-05-02T04:32:04.218Z,36.10
2019-05-02T04:34:29.351Z,33.67
2019-05-02T04:37:01.293Z,35.90
2019-05-02T04:39:29.166Z,36.28
2019-05-02T04:41:58.598Z,37.20
2019-05-02T04:44:29.778Z,37.78
2019-05-02T04:46:59.966Z,39.50
2019-05-02T04:49:33.615Z,38.75
2019-05-02T04:52:05.956Z,34.48
2019-05-02T04:54:32.175Z,37.45
2019-05-02T04:57:02.407Z,39.65
2019-05-02T04:59:32.983Z,37.55
2019-05-02T05:02:01.303Z,37.30
2019-05-02T05:04:33.352Z,37.33
2019-05-02T05:07:01.118Z,37.63
2019-05-02T05:09:30.095Z,36.75
2019-05-02T05:12:02.406Z,36.90
2019-05-02T05:14:31.482Z,36.55
2019-05-02T05:16:59.144Z,35.92
2019-05-02T05:19:32.483Z,37.50
2019-05-02T05:22:04.352Z,37.20
2019-05-02T05:24:44.868Z,35.17
2019-05-02T05:27:18.145Z,39.38
2019-05-02T05:29:46.062Z,38.53
2019-05-02T05:32:13.857Z,37.60
2019-05-02T05:34:42.404Z,35.45
2019-05-02T05:37:13.344Z,40.00
2019-05-02T05:39:43.025Z,36.28
2019-05-02T05:42:11.494Z,42.40
2019-05-02T05:44:40.090Z,36.73
2019-05-02T05:47:12.106Z,45.67
2019-05-02T05:49:39.135Z,33.02
2019-05-02T05:52:08.168Z,35.10
2019-05-02T05:54:38.365Z,32.38
2019-05-02T05:57:07.752Z,30.62
2019-05-02T05:59:37.990Z,26.02
2019-05-02T06:02:13.071Z,26.23
2019-05-02T06:04:38.689Z,29.37
2019-05-02T06:07:07.421Z,30.02
2019-05-02T06:09:35.991Z,28.07
2019-05-02T06:12:04.697Z,27.95
2019-05-02T06:14:34.759Z,22.95
2019-05-02T06:17:03.621Z,23.45
2019-05-02T06:19:32.244Z,23.73
2019-05-02T06:22:00.822Z,25.37
2019-05-02T06:24:29.437Z,24.10
2019-05-02T06:26:58.052Z,22.58
2019-05-02T06:29:26.530Z,23.25
2019-05-02T06:31:56.642Z,22.52
2019-05-02T06:34:25.219Z,25.02
2019-05-02T06:36:53.795Z,26.60
2019-05-02T06:39:22.372Z,23.60
2019-05-02T06:41:56.911Z,20.80
2019-05-02T06:44:24.106Z,19.17
2019-05-02T06:46:53.358Z,21.33
2019-05-02T06:49:24.153Z,18.67
2019-05-02T06:51:56.246Z,22.90
2019-05-02T06:54:22.795Z,24.55
2019-05-02T06:56:52.689Z,20.10
2019-05-02T06:59:21.257Z,19.87
2019-05-02T07:01:52.358Z,19.62
2019-05-02T07:04:22.978Z,22.87
2019-05-02T07:06:58.722Z,19.40
2019-05-02T07:09:20.625Z,19.00
2019-05-02T07:11:56.926Z,22.48
2019-05-02T07:14:23.359Z,20.43
2019-05-02T07:17:05.662Z,19.82
2019-05-02T07:22:04.373Z,20.50
2019-05-02T07:24:33.487Z,24.82
2019-05-02T07:27:02.641Z,18.70
2019-05-02T07:29:31.519Z,19.57
2019-05-02T07:32:00.161Z,18.77
2019-05-02T07:34:28.709Z,19.60
2019-05-02T07:36:57.417Z,17.95
2019-05-02T07:39:26.021Z,19.90
2019-05-02T07:41:54.753Z,20.27
2019-05-02T07:44:27.243Z,20.23
2019-05-02T07:46:56.920Z,20.20
2019-05-02T07:49:26.637Z,18.80
2019-05-02T07:51:57.654Z,17.40
2019-05-02T07:54:26.663Z,17.92
2019-05-02T07:56:54.808Z,16.10
2019-05-02T07:59:23.862Z,15.40
2019-05-02T08:01:53.768Z,15.03
2019-05-02T08:04:22.414Z,14.83
2019-05-02T08:06:50.948Z,11.28
2019-05-02T08:09:19.632Z,12.23
2019-05-02T08:11:48.274Z,10.23
2019-05-02T08:14:16.852Z,10.90
2019-05-02T08:16:45.421Z,14.10
2019-05-02T08:19:14.840Z,12.00
2019-05-02T08:21:43.383Z,20.50
2019-05-02T08:24:11.976Z,18.90
2019-05-02T08:26:44.974Z,12.07
2019-05-02T08:29:14.107Z,8.60
2019-05-02T08:31:42.685Z,10.68
2019-05-02T08:34:14.974Z,17.67
2019-05-02T08:36:42.300Z,8.35
2019-05-02T08:39:14.279Z,22.58
2019-05-02T08:41:41.451Z,11.57
2019-05-02T08:44:09.920Z,14.23
2019-05-02T08:46:38.447Z,14.75
2019-05-02T08:49:07.027Z,7.60
2019-05-02T08:51:35.596Z,9.98
2019-05-02T08:54:04.632Z,10.03
2019-05-02T08:56:34.992Z,10.13
2019-05-02T08:59:03.660Z,7.30
2019-05-02T09:01:35.341Z,36.35
2019-05-02T09:04:02.646Z,7.05
2019-05-02T09:06:31.210Z,8.68
2019-05-02T09:08:59.798Z,9.05
2019-05-02T09:11:28.709Z,7.17
2019-05-02T09:13:57.278Z,6.42
2019-05-02T09:16:28.612Z,7.30
2019-05-02T09:18:56.040Z,9.33
2019-05-02T09:21:26.729Z,8.75
2019-05-02T09:23:54.721Z,7.03
2019-05-02T09:26:35.072Z,7.10
2019-05-02T09:28:56.387Z,8.78
2019-05-02T09:31:23.684Z,11.10
2019-05-02T09:33:55.332Z,8.03
2019-05-02T09:36:22.816Z,7.22
2019-05-02T09:38:56.437Z,5.42
2019-05-02T09:41:22.237Z,6.42
2019-05-02T09:43:52.350Z,6.37
2019-05-02T09:46:21.735Z,6.45
2019-05-02T09:48:51.945Z,5.30
2019-05-02T09:51:21.666Z,7.50
2019-05-02T09:53:52.330Z,8.73
2019-05-02T09:56:21.960Z,3.72
2019-05-02T09:58:55.313Z,5.45
2019-05-02T10:01:22.774Z,4.87
2019-05-02T10:03:51.887Z,5.70
2019-05-02T10:06:20.460Z,4.95
2019-05-02T10:08:49.156Z,7.33
2019-05-02T10:11:22.633Z,6.97
2019-05-02T10:13:47.899Z,9.68
2019-05-02T10:16:18.102Z,5.28
2019-05-02T10:18:47.077Z,5.03
2019-05-02T10:21:17.461Z,7.75
2019-05-02T10:23:46.547Z,5.60
2019-05-02T10:26:20.154Z,6.37
2019-05-02T10:28:50.539Z,8.35
2019-05-02T10:31:16.400Z,5.65
2019-05-02T10:33:44.950Z,6.42
2019-05-02T10:36:19.535Z,11.28
2019-05-02T10:38:43.767Z,4.97
2019-05-02T10:41:12.302Z,4.12
2019-05-02T10:43:42.278Z,4.12
2019-05-02T10:46:23.053Z,4.75
2019-05-02T10:48:56.277Z,5.00
2019-05-02T10:51:26.476Z,7.12
2019-05-02T10:53:56.554Z,6.60
2019-05-02T10:56:25.534Z,5.28
2019-05-02T10:58:54.104Z,9.78
2019-05-02T11:01:24.352Z,6.58
2019-05-02T11:03:54.766Z,5.80
2019-05-02T11:06:23.262Z,4.95
2019-05-02T11:08:52.423Z,4.87
2019-05-02T11:11:22.301Z,5.55
2019-05-02T11:14:00.588Z,8.00
2019-05-02T11:16:42.956Z,6.83
2019-05-02T11:19:13.319Z,4.90
2019-05-02T11:21:54.921Z,4.72
2019-05-02T11:24:14.260Z,9.55
2019-05-02T11:26:42.923Z,9.33
2019-05-02T11:29:12.163Z,8.03
2019-05-02T11:31:42.768Z,8.18
2019-05-02T11:34:12.318Z,30.50
2019-05-02T11:36:41.990Z,7.85
2019-05-02T11:39:18.811Z,7.35
2019-05-02T11:41:42.311Z,7.45
2019-05-02T11:44:12.146Z,6.78
2019-05-02T11:46:43.060Z,8.55
2019-05-02T11:49:12.235Z,9.65
2019-05-02T11:51:42.191Z,5.33
2019-05-02T11:54:12.903Z,7.85
2019-05-02T11:56:48.863Z,6.40
2019-05-02T11:59:14.797Z,6.00
2019-05-02T12:01:56.537Z,11.15
2019-05-02T12:04:16.893Z,7.85
2019-05-02T12:06:44.527Z,6.20
2019-05-02T12:09:13.402Z,7.42
2019-05-02T12:11:42.381Z,10.80
2019-05-02T12:14:12.318Z,10.35
2019-05-02T12:16:43.016Z,9.50
2019-05-02T12:19:14.432Z,8.30
2019-05-02T12:21:43.682Z,7.70
2019-05-02T12:24:12.681Z,15.68
2019-05-02T12:26:41.994Z,7.30
2019-05-02T12:29:12.239Z,10.45
2019-05-02T12:31:42.545Z,11.50
2019-05-02T12:34:12.016Z,12.53
2019-05-02T12:36:42.714Z,9.83
2019-05-02T12:39:12.592Z,8.70
2019-05-02T12:41:42.270Z,9.65
2019-05-02T12:44:11.801Z,9.90
2019-05-02T12:46:42.148Z,11.78
2019-05-02T12:49:22.546Z,7.70
2019-05-02T12:51:42.838Z,5.35
2019-05-02T12:54:12.381Z,11.68
2019-05-02T12:56:41.834Z,5.37
2019-05-02T12:59:11.820Z,9.83
2019-05-02T13:01:42.165Z,9.80
2019-05-02T13:04:12.883Z,10.82
2019-05-02T13:06:42.166Z,9.73
2019-05-02T13:09:13.008Z,8.08
2019-05-02T13:11:46.459Z,10.00
2019-05-02T13:14:19.517Z,14.73
2019-05-02T13:16:46.818Z,7.78
2019-05-02T13:19:15.652Z,7.60
2019-05-02T13:22:02.346Z,7.78
2019-05-02T13:24:35.585Z,8.35
2019-05-02T13:27:07.342Z,9.65
2019-05-02T13:29:36.168Z,10.65
2019-05-02T13:32:08.708Z,9.05
2019-05-02T13:34:41.376Z,12.70
2019-05-02T13:37:12.216Z,9.45
2019-05-02T13:39:48.043Z,8.75
2019-05-02T13:42:17.549Z,9.90
2019-05-02T13:44:52.551Z,16.15
2019-05-02T13:47:22.349Z,14.93
2019-05-02T13:49:54.831Z,9.48
2019-05-02T13:52:22.611Z,12.90
2019-05-02T13:54:52.227Z,9.00
2019-05-02T13:57:21.772Z,9.60
2019-05-02T13:59:52.391Z,10.25
2019-05-02T14:02:36.244Z,11.68
2019-05-02T14:05:13.459Z,10.80
2019-05-02T14:07:53.979Z,7.80
2019-05-02T14:10:23.909Z,9.83
2019-05-02T14:12:56.721Z,13.50
2019-05-02T14:15:26.928Z,12.00
2019-05-02T14:17:55.745Z,10.75
2019-05-02T14:20:24.393Z,8.23
2019-05-02T14:22:52.934Z,7.35
2019-05-02T14:25:22.532Z,11.45
2019-05-02T14:27:55.462Z,15.65
2019-05-02T14:30:36.064Z,9.95
2019-05-02T14:32:55.359Z,7.90
2019-05-02T14:35:28.504Z,13.53
2019-05-02T14:40:46.491Z,13.18
2019-05-02T14:43:16.669Z,14.40
2019-05-02T14:45:45.139Z,11.45
2019-05-02T14:48:21.569Z,11.15
2019-05-02T14:50:47.250Z,9.45
2019-05-02T14:53:16.790Z,7.97
2019-05-02T14:55:48.203Z,9.65
2019-05-02T14:58:16.722Z,8.68
2019-05-02T15:00:48.113Z,10.58
2019-05-02T15:03:19.126Z,11.08
2019-05-02T15:05:47.147Z,7.70
2019-05-02T15:08:15.748Z,10.98
2019-05-02T15:10:52.574Z,12.23
2019-05-02T15:13:14.934Z,13.05
2019-05-02T15:15:43.572Z,10.88
2019-05-02T15:18:17.375Z,10.10
2019-05-02T15:20:42.903Z,16.35
2019-05-02T15:23:13.014Z,13.68
2019-05-02T15:25:42.363Z,7.50
2019-05-02T15:28:13.098Z,7.15
2019-05-02T15:30:48.106Z,12.50
2019-05-02T15:33:17.035Z,7.83
2019-05-02T15:35:57.307Z,10.40
2019-05-02T15:38:28.135Z,12.43
2019-05-02T15:40:59.266Z,9.35
2019-05-02T15:43:26.605Z,12.20
2019-05-02T15:45:55.182Z,13.70
2019-05-02T15:48:27.501Z,7.22
2019-05-02T15:50:55.396Z,15.08
2019-05-02T15:53:39.208Z,11.50
2019-05-02T15:56:15.740Z,11.10
2019-05-02T15:58:38.646Z,10.43
2019-05-02T16:01:12.006Z,16.25
2019-05-02T16:03:54.320Z,7.10
2019-05-02T16:06:30.487Z,8.98
2019-05-02T16:08:53.071Z,8.33
2019-05-02T16:11:22.967Z,8.35
2019-05-02T16:13:55.838Z,9.98
2019-05-02T16:16:23.153Z,10.50
2019-05-02T16:18:52.627Z,13.30
2019-05-02T16:21:35.137Z,10.40
2019-05-02T16:24:23.501Z,12.18
2019-05-02T16:26:56.642Z,13.70
2019-05-02T16:29:28.257Z,11.30
2019-05-02T16:32:13.847Z,13.13
2019-05-02T16:34:54.732Z,12.93
2019-05-02T16:37:24.072Z,18.00
2019-05-02T16:39:52.670Z,15.58
2019-05-02T16:42:22.698Z,12.40
2019-05-02T16:44:52.204Z,10.95
2019-05-02T16:47:22.019Z,11.48
2019-05-02T16:49:54.703Z,14.53
2019-05-02T16:52:22.214Z,15.03
2019-05-02T16:54:52.622Z,10.98
2019-05-02T16:57:22.279Z,13.05
2019-05-02T16:59:53.878Z,18.50
2019-05-02T17:02:21.909Z,14.23
2019-05-02T17:04:52.064Z,14.58
2019-05-02T17:07:23.021Z,15.23
2019-05-02T17:09:55.772Z,11.57
2019-05-02T17:12:24.348Z,12.60
2019-05-02T17:15:13.698Z,14.98
2019-05-02T17:17:42.366Z,17.17
2019-05-02T17:20:14.229Z,23.83
2019-05-02T17:22:43.938Z,20.30
2019-05-02T17:25:12.432Z,15.55
2019-05-02T17:27:42.318Z,16.02
2019-05-02T17:30:12.516Z,15.05
2019-05-02T17:32:41.508Z,17.15
2019-05-02T17:35:12.353Z,17.95
2019-05-02T17:37:48.774Z,21.90
2019-05-02T17:40:12.225Z,18.17
2019-05-02T17:42:41.565Z,20.77
2019-05-02T17:45:11.152Z,17.42
2019-05-02T17:47:39.641Z,19.37
2019-05-02T17:50:28.640Z,23.80
2019-05-02T17:53:03.032Z,19.98
2019-05-02T17:55:34.541Z,21.35
2019-05-02T17:58:04.640Z,27.87
2019-05-02T18:00:39.729Z,26.52
2019-05-02T18:03:08.324Z,32.45
2019-05-02T18:05:36.923Z,26.25
2019-05-02T18:08:11.102Z,26.93
2019-05-02T18:10:36.420Z,25.55
2019-05-02T18:13:05.670Z,31.45
2019-05-02T18:15:34.830Z,31.30
2019-05-02T18:18:07.819Z,42.62
2019-05-02T18:20:37.135Z,29.23
2019-05-02T18:23:06.743Z,28.05
2019-05-02T18:25:35.364Z,30.62
2019-05-02T18:28:04.281Z,30.65
2019-05-02T18:30:32.895Z,26.10
2019-05-02T18:33:05.345Z,31.12
2019-05-02T18:35:32.578Z,32.55
2019-05-02T18:38:02.660Z,29.20
2019-05-02T18:40:32.084Z,34.70
2019-05-02T18:43:03.569Z,37.73
2019-05-02T18:45:31.852Z,26.90
2019-05-02T18:48:05.168Z,25.85
2019-05-02T18:50:36.915Z,28.05
2019-05-02T18:53:04.671Z,23.85
2019-05-02T18:55:33.313Z,22.58
2019-05-02T18:58:05.237Z,27.05
2019-05-02T19:00:36.142Z,26.50
2019-05-02T19:03:07.546Z,26.02
2019-05-02T19:05:33.435Z,22.13
2019-05-02T19:08:02.655Z,23.25
2019-05-02T19:10:32.348Z,25.70
2019-05-02T19:13:05.857Z,91.87
2019-05-02T19:15:34.543Z,26.15
2019-05-02T19:18:02.627Z,26.00
2019-05-02T19:20:50.985Z,26.73
2019-05-02T19:23:12.345Z,25.60
2019-05-02T19:25:40.844Z,41.92
2019-05-02T19:28:14.142Z,42.17
2019-05-02T19:30:43.523Z,28.52
2019-05-02T19:33:12.279Z,21.65
2019-05-02T19:35:43.265Z,26.25
2019-05-02T19:38:11.946Z,25.48
2019-05-02T19:40:42.608Z,23.05
2019-05-02T19:43:14.550Z,29.00
2019-05-02T19:45:41.226Z,23.55
2019-05-02T19:48:09.831Z,23.95
2019-05-02T19:50:43.737Z,29.65
2019-05-02T19:53:15.245Z,24.72
2019-05-02T19:55:42.717Z,28.23
2019-05-02T19:58:11.009Z,27.02
2019-05-02T20:00:44.480Z,25.48
2019-05-02T20:03:13.638Z,27.90
2019-05-02T20:05:42.657Z,31.20
2019-05-02T20:08:14.669Z,30.77
2019-05-02T20:10:42.343Z,30.75
2019-05-02T20:13:12.089Z,30.20
2019-05-02T20:15:48.020Z,27.58
2019-05-02T20:18:16.608Z,35.80
2019-05-02T20:21:12.205Z,30.82
2019-05-02T20:23:37.781Z,33.90
2019-05-02T20:26:09.379Z,31.25
2019-05-02T20:28:36.893Z,33.08
2019-05-02T20:31:05.511Z,33.75
2019-05-02T20:33:34.119Z,40.60
2019-05-02T20:36:02.714Z,37.40
2019-05-02T20:38:32.485Z,59.13
2019-05-02T20:41:02.939Z,50.12
2019-05-02T20:43:32.348Z,44.77
2019-05-02T20:46:02.588Z,47.48
2019-05-02T20:48:32.256Z,33.38
2019-05-02T20:51:02.742Z,30.35
2019-05-02T20:53:34.075Z,26.20
2019-05-02T20:56:01.919Z,34.63
2019-05-02T20:58:32.585Z,33.92
2019-05-02T21:01:07.932Z,30.95
2019-05-02T21:03:32.049Z,30.52
2019-05-02T21:06:05.344Z,31.37
2019-05-02T21:08:52.571Z,32.45
2019-05-02T21:11:21.616Z,28.60
2019-05-02T21:13:50.192Z,29.63
2019-05-02T21:16:19.019Z,37.20
2019-05-02T21:18:48.006Z,32.30
2019-05-02T21:21:18.175Z,27.27
2019-05-02T21:23:47.708Z,28.40
2019-05-02T21:26:16.542Z,28.00
2019-05-02T21:28:46.230Z,28.60
2019-05-02T21:31:15.136Z,25.92
2019-05-02T21:33:44.048Z,30.30
2019-05-02T21:36:12.694Z,23.32
2019-05-02T21:38:42.715Z,28.92
2019-05-02T21:41:12.224Z,30.55
2019-05-02T21:43:42.517Z,28.55
2019-05-02T21:46:11.034Z,35.68
2019-05-02T21:48:41.832Z,25.30
2019-05-02T21:51:22.537Z,29.75
2019-05-02T21:53:56.051Z,27.75
2019-05-02T21:56:39.321Z,33.48
2019-05-02T21:59:09.368Z,29.82
2019-05-02T22:01:42.464Z,29.72
2019-05-02T22:04:13.246Z,27.95
2019-05-02T22:06:42.720Z,29.27
2019-05-02T22:09:12.283Z,29.90
2019-05-02T22:11:42.908Z,31.50
2019-05-02T22:14:13.243Z,29.67
2019-05-02T22:16:42.792Z,31.42
2019-05-02T22:19:11.519Z,37.03
2019-05-02T22:21:40.156Z,36.98
2019-05-02T22:24:11.670Z,28.57
2019-05-02T22:26:38.917Z,37.00
2019-05-02T22:29:07.526Z,38.98
2019-05-02T22:31:37.277Z,33.85
2019-05-02T22:34:06.356Z,31.73
2019-05-02T22:36:35.274Z,37.53
2019-05-02T22:39:25.074Z,39.83
2019-05-02T22:41:53.657Z,37.83
2019-05-02T22:44:22.159Z,37.53
2019-05-02T22:46:52.083Z,34.63
2019-05-02T22:49:22.555Z,34.05
2019-05-02T22:51:51.122Z,39.03
2019-05-02T22:54:27.697Z,33.53
2019-05-02T22:56:51.956Z,31.42
2019-05-02T22:59:23.719Z,36.55
2019-05-02T23:01:52.602Z,37.50
2019-05-02T23:04:23.247Z,40.30
2019-05-02T23:06:52.747Z,34.48
2019-05-02T23:09:22.003Z,33.45
2019-05-02T23:11:51.887Z,38.63
2019-05-02T23:14:22.127Z,33.95
2019-05-02T23:16:52.831Z,36.38
2019-05-02T23:19:22.910Z,39.08
2019-05-02T23:21:52.646Z,38.05
2019-05-02T23:24:35.920Z,34.18
2019-05-02T23:26:55.456Z,33.88
2019-05-02T23:29:24.055Z,36.00
2019-05-02T23:31:52.607Z,37.05
2019-05-02T23:34:23.262Z,37.90
2019-05-02T23:36:52.278Z,33.85
2019-05-02T23:39:21.117Z,40.45
2019-05-02T23:41:49.711Z,37.60
2019-05-02T23:44:18.258Z,36.65
2019-05-02T23:46:46.881Z,35.43
2019-05-02T23:49:15.535Z,38.95
2019-05-02T23:51:44.109Z,40.23
2019-05-02T23:54:13.089Z,44.73
2019-05-02T23:56:43.309Z,40.35
2019-05-02T23:59:12.089Z,35.20
